sensor_id;sensor_type;location;lat;lon;timestamp;P1;durP1;ratioP1;P2;durP2;ratioP2
10565;SDS011;5331;48.148;16.326;2022-12-07T00:00:19;5.67;;;5.07;;
10565;SDS011;5331;48.148;16.326;2022-12-07T00:02:46;6.60;;;5.13;;
10565;SDS011;5331;48.148;16.326;2022-12-07T00:05:13;7.80;;;5.20;;
10565;SDS011;5331;48.148;16.326;2022-12-07T00:07:41;7.10;;;5.60;;
10565;SDS011;5331;48.148;16.326;2022-12-07T00:10:08;6.77;;;5.40;;
10565;SDS011;5331;48.148;16.326;2022-12-07T00:12:35;6.27;;;5.43;;
10565;SDS011;5331;48.148;16.326;2022-12-07T00:15:02;5.87;;;5.13;;
10565;SDS011;5331;48.148;16.326;2022-12-07T00:17:30;5.60;;;4.93;;
10565;SDS011;5331;48.148;16.326;2022-12-07T00:19:58;7.43;;;5.20;;
10565;SDS011;5331;48.148;16.326;2022-12-07T00:22:25;6.77;;;5.70;;
10565;SDS011;5331;48.148;16.326;2022-12-07T00:24:53;7.40;;;5.77;;
10565;SDS011;5331;48.148;16.326;2022-12-07T00:27:20;7.20;;;6.07;;
10565;SDS011;5331;48.148;16.326;2022-12-07T00:29:47;7.33;;;5.90;;
10565;SDS011;5331;48.148;16.326;2022-12-07T00:32:14;7.67;;;6.57;;
10565;SDS011;5331;48.148;16.326;2022-12-07T00:34:41;8.37;;;6.50;;
10565;SDS011;5331;48.148;16.326;2022-12-07T00:37:08;9.80;;;7.03;;
10565;SDS011;5331;48.148;16.326;2022-12-07T00:39:35;9.50;;;7.27;;
10565;SDS011;5331;48.148;16.326;2022-12-07T00:42:03;8.67;;;6.93;;
10565;SDS011;5331;48.148;16.326;2022-12-07T00:44:30;9.57;;;6.97;;
10565;SDS011;5331;48.148;16.326;2022-12-07T00:46:57;9.53;;;6.90;;
10565;SDS011;5331;48.148;16.326;2022-12-07T00:49:24;9.07;;;7.33;;
10565;SDS011;5331;48.148;16.326;2022-12-07T00:51:51;8.63;;;7.17;;
10565;SDS011;5331;48.148;16.326;2022-12-07T00:54:18;10.33;;;7.53;;
10565;SDS011;5331;48.148;16.326;2022-12-07T00:56:45;9.30;;;7.80;;
10565;SDS011;5331;48.148;16.326;2022-12-07T00:59:13;8.87;;;7.13;;
10565;SDS011;5331;48.148;16.326;2022-12-07T01:01:40;8.83;;;7.50;;
10565;SDS011;5331;48.148;16.326;2022-12-07T01:04:07;8.60;;;7.37;;
10565;SDS011;5331;48.148;16.326;2022-12-07T01:06:34;9.40;;;7.23;;
10565;SDS011;5331;48.148;16.326;2022-12-07T01:09:01;9.63;;;7.57;;
10565;SDS011;5331;48.148;16.326;2022-12-07T01:11:29;9.17;;;7.27;;
10565;SDS011;5331;48.148;16.326;2022-12-07T01:13:57;9.23;;;7.50;;
10565;SDS011;5331;48.148;16.326;2022-12-07T01:16:27;8.97;;;7.73;;
10565;SDS011;5331;48.148;16.326;2022-12-07T01:18:56;9.43;;;7.33;;
10565;SDS011;5331;48.148;16.326;2022-12-07T01:21:24;10.80;;;7.70;;
10565;SDS011;5331;48.148;16.326;2022-12-07T01:23:53;8.40;;;7.13;;
10565;SDS011;5331;48.148;16.326;2022-12-07T01:26:21;11.43;;;8.47;;
10565;SDS011;5331;48.148;16.326;2022-12-07T01:28:49;10.17;;;8.00;;
10565;SDS011;5331;48.148;16.326;2022-12-07T01:31:17;10.93;;;8.60;;
10565;SDS011;5331;48.148;16.326;2022-12-07T01:33:47;10.87;;;7.93;;
10565;SDS011;5331;48.148;16.326;2022-12-07T01:36:16;11.67;;;8.87;;
10565;SDS011;5331;48.148;16.326;2022-12-07T01:38:44;11.53;;;9.00;;
10565;SDS011;5331;48.148;16.326;2022-12-07T01:41:12;11.77;;;9.00;;
10565;SDS011;5331;48.148;16.326;2022-12-07T01:46:39;14.43;;;10.00;;
10565;SDS011;5331;48.148;16.326;2022-12-07T01:49:09;13.10;;;9.37;;
10565;SDS011;5331;48.148;16.326;2022-12-07T01:51:38;11.33;;;9.07;;
10565;SDS011;5331;48.148;16.326;2022-12-07T01:54:08;15.73;;;10.07;;
10565;SDS011;5331;48.148;16.326;2022-12-07T01:56:37;13.27;;;9.43;;
10565;SDS011;5331;48.148;16.326;2022-12-07T01:59:06;15.80;;;10.03;;
10565;SDS011;5331;48.148;16.326;2022-12-07T02:01:34;14.10;;;10.00;;
10565;SDS011;5331;48.148;16.326;2022-12-07T02:04:00;12.57;;;9.60;;
10565;SDS011;5331;48.148;16.326;2022-12-07T02:06:29;14.07;;;9.57;;
10565;SDS011;5331;48.148;16.326;2022-12-07T02:08:57;13.67;;;9.63;;
10565;SDS011;5331;48.148;16.326;2022-12-07T02:11:23;14.23;;;9.47;;
10565;SDS011;5331;48.148;16.326;2022-12-07T02:13:50;15.23;;;9.43;;
10565;SDS011;5331;48.148;16.326;2022-12-07T02:16:24;13.07;;;9.40;;
10565;SDS011;5331;48.148;16.326;2022-12-07T02:18:58;13.30;;;9.17;;
10565;SDS011;5331;48.148;16.326;2022-12-07T02:21:49;12.63;;;9.23;;
10565;SDS011;5331;48.148;16.326;2022-12-07T02:30:04;11.27;;;8.47;;
10565;SDS011;5331;48.148;16.326;2022-12-07T02:32:37;12.23;;;9.30;;
10565;SDS011;5331;48.148;16.326;2022-12-07T02:35:10;11.50;;;8.30;;
10565;SDS011;5331;48.148;16.326;2022-12-07T02:37:42;13.03;;;8.97;;
10565;SDS011;5331;48.148;16.326;2022-12-07T02:40:18;11.20;;;8.30;;
10565;SDS011;5331;48.148;16.326;2022-12-07T02:42:51;12.37;;;8.50;;
10565;SDS011;5331;48.148;16.326;2022-12-07T02:45:25;13.37;;;8.97;;
10565;SDS011;5331;48.148;16.326;2022-12-07T02:47:55;12.10;;;8.50;;
10565;SDS011;5331;48.148;16.326;2022-12-07T02:50:25;11.10;;;8.20;;
10565;SDS011;5331;48.148;16.326;2022-12-07T02:52:52;11.37;;;8.13;;
10565;SDS011;5331;48.148;16.326;2022-12-07T02:55:21;11.40;;;8.03;;
10565;SDS011;5331;48.148;16.326;2022-12-07T02:58:02;11.47;;;8.30;;
10565;SDS011;5331;48.148;16.326;2022-12-07T03:00:40;12.87;;;8.63;;
10565;SDS011;5331;48.148;16.326;2022-12-07T03:03:15;11.47;;;8.50;;
10565;SDS011;5331;48.148;16.326;2022-12-07T03:05:49;10.87;;;8.60;;
10565;SDS011;5331;48.148;16.326;2022-12-07T03:08:27;10.97;;;8.03;;
10565;SDS011;5331;48.148;16.326;2022-12-07T03:11:00;11.73;;;7.80;;
10565;SDS011;5331;48.148;16.326;2022-12-07T03:13:30;12.93;;;8.83;;
10565;SDS011;5331;48.148;16.326;2022-12-07T03:16:05;12.10;;;8.73;;
10565;SDS011;5331;48.148;16.326;2022-12-07T03:18:40;12.43;;;8.57;;
10565;SDS011;5331;48.148;16.326;2022-12-07T03:21:12;12.90;;;8.43;;
10565;SDS011;5331;48.148;16.326;2022-12-07T03:23:44;11.33;;;8.23;;
10565;SDS011;5331;48.148;16.326;2022-12-07T03:26:15;11.90;;;8.27;;
10565;SDS011;5331;48.148;16.326;2022-12-07T03:28:47;10.87;;;7.83;;
10565;SDS011;5331;48.148;16.326;2022-12-07T03:31:20;9.93;;;7.40;;
10565;SDS011;5331;48.148;16.326;2022-12-07T03:33:51;12.17;;;8.30;;
10565;SDS011;5331;48.148;16.326;2022-12-07T03:36:25;11.83;;;8.40;;
10565;SDS011;5331;48.148;16.326;2022-12-07T03:38:57;11.57;;;8.27;;
10565;SDS011;5331;48.148;16.326;2022-12-07T03:41:29;10.50;;;7.77;;
10565;SDS011;5331;48.148;16.326;2022-12-07T03:43:58;10.03;;;7.80;;
10565;SDS011;5331;48.148;16.326;2022-12-07T03:46:29;11.73;;;7.93;;
10565;SDS011;5331;48.148;16.326;2022-12-07T03:49:05;9.67;;;7.20;;
10565;SDS011;5331;48.148;16.326;2022-12-07T03:51:38;11.13;;;7.67;;
10565;SDS011;5331;48.148;16.326;2022-12-07T03:54:11;8.73;;;7.37;;
10565;SDS011;5331;48.148;16.326;2022-12-07T03:56:42;9.50;;;6.80;;
10565;SDS011;5331;48.148;16.326;2022-12-07T03:59:10;9.40;;;6.93;;
10565;SDS011;5331;48.148;16.326;2022-12-07T04:05:02;10.10;;;7.47;;
10565;SDS011;5331;48.148;16.326;2022-12-07T04:07:30;9.30;;;7.30;;
10565;SDS011;5331;48.148;16.326;2022-12-07T04:09:57;9.03;;;7.47;;
10565;SDS011;5331;48.148;16.326;2022-12-07T04:12:24;9.93;;;6.90;;
10565;SDS011;5331;48.148;16.326;2022-12-07T04:14:51;9.77;;;7.00;;
10565;SDS011;5331;48.148;16.326;2022-12-07T04:17:18;9.93;;;7.07;;
10565;SDS011;5331;48.148;16.326;2022-12-07T04:19:45;10.20;;;7.60;;
10565;SDS011;5331;48.148;16.326;2022-12-07T04:22:13;9.20;;;6.97;;
10565;SDS011;5331;48.148;16.326;2022-12-07T04:24:40;9.43;;;6.67;;
10565;SDS011;5331;48.148;16.326;2022-12-07T04:27:07;9.10;;;6.67;;
10565;SDS011;5331;48.148;16.326;2022-12-07T04:29:33;9.97;;;7.00;;
10565;SDS011;5331;48.148;16.326;2022-12-07T04:32:00;9.47;;;7.03;;
10565;SDS011;5331;48.148;16.326;2022-12-07T04:34:27;9.53;;;6.93;;
10565;SDS011;5331;48.148;16.326;2022-12-07T04:36:54;8.00;;;6.60;;
10565;SDS011;5331;48.148;16.326;2022-12-07T04:39:23;9.20;;;6.83;;
10565;SDS011;5331;48.148;16.326;2022-12-07T04:41:51;9.23;;;6.77;;
10565;SDS011;5331;48.148;16.326;2022-12-07T04:44:18;10.17;;;7.37;;
10565;SDS011;5331;48.148;16.326;2022-12-07T04:46:46;9.70;;;7.03;;
10565;SDS011;5331;48.148;16.326;2022-12-07T04:49:15;9.60;;;6.97;;
10565;SDS011;5331;48.148;16.326;2022-12-07T04:51:42;8.83;;;6.80;;
10565;SDS011;5331;48.148;16.326;2022-12-07T04:54:09;7.57;;;5.90;;
10565;SDS011;5331;48.148;16.326;2022-12-07T04:56:38;9.83;;;6.80;;
10565;SDS011;5331;48.148;16.326;2022-12-07T04:59:05;8.47;;;6.43;;
10565;SDS011;5331;48.148;16.326;2022-12-07T05:01:32;10.80;;;6.97;;
10565;SDS011;5331;48.148;16.326;2022-12-07T05:03:59;9.33;;;6.60;;
10565;SDS011;5331;48.148;16.326;2022-12-07T05:06:27;8.57;;;6.47;;
10565;SDS011;5331;48.148;16.326;2022-12-07T05:08:53;8.97;;;6.83;;
10565;SDS011;5331;48.148;16.326;2022-12-07T05:11:20;13.33;;;8.50;;
10565;SDS011;5331;48.148;16.326;2022-12-07T05:14:08;9.83;;;7.33;;
10565;SDS011;5331;48.148;16.326;2022-12-07T05:16:38;10.40;;;7.10;;
10565;SDS011;5331;48.148;16.326;2022-12-07T05:19:05;9.43;;;6.67;;
10565;SDS011;5331;48.148;16.326;2022-12-07T05:21:32;9.00;;;6.47;;
10565;SDS011;5331;48.148;16.326;2022-12-07T05:23:59;10.80;;;6.63;;
10565;SDS011;5331;48.148;16.326;2022-12-07T05:26:27;9.10;;;6.47;;
10565;SDS011;5331;48.148;16.326;2022-12-07T05:28:54;7.93;;;6.40;;
10565;SDS011;5331;48.148;16.326;2022-12-07T05:31:23;8.50;;;6.33;;
10565;SDS011;5331;48.148;16.326;2022-12-07T05:33:51;9.73;;;6.60;;
10565;SDS011;5331;48.148;16.326;2022-12-07T05:36:18;9.57;;;6.47;;
10565;SDS011;5331;48.148;16.326;2022-12-07T05:38:45;8.13;;;5.93;;
10565;SDS011;5331;48.148;16.326;2022-12-07T05:41:13;9.17;;;6.57;;
10565;SDS011;5331;48.148;16.326;2022-12-07T05:43:59;8.60;;;5.80;;
10565;SDS011;5331;48.148;16.326;2022-12-07T05:46:27;9.17;;;6.40;;
10565;SDS011;5331;48.148;16.326;2022-12-07T05:48:54;11.73;;;7.57;;
10565;SDS011;5331;48.148;16.326;2022-12-07T05:51:21;7.73;;;6.07;;
10565;SDS011;5331;48.148;16.326;2022-12-07T05:53:48;7.23;;;5.87;;
10565;SDS011;5331;48.148;16.326;2022-12-07T05:56:15;8.37;;;5.83;;
10565;SDS011;5331;48.148;16.326;2022-12-07T05:58:42;8.20;;;5.90;;
10565;SDS011;5331;48.148;16.326;2022-12-07T06:01:27;6.80;;;5.30;;
10565;SDS011;5331;48.148;16.326;2022-12-07T06:03:54;7.17;;;5.60;;
10565;SDS011;5331;48.148;16.326;2022-12-07T06:06:21;7.40;;;5.40;;
10565;SDS011;5331;48.148;16.326;2022-12-07T06:08:48;7.83;;;5.13;;
10565;SDS011;5331;48.148;16.326;2022-12-07T06:11:15;6.27;;;5.07;;
10565;SDS011;5331;48.148;16.326;2022-12-07T06:13:59;8.93;;;5.80;;
10565;SDS011;5331;48.148;16.326;2022-12-07T06:16:27;7.90;;;5.37;;
10565;SDS011;5331;48.148;16.326;2022-12-07T06:18:54;7.67;;;5.60;;
10565;SDS011;5331;48.148;16.326;2022-12-07T06:21:21;6.47;;;5.07;;
10565;SDS011;5331;48.148;16.326;2022-12-07T06:23:50;7.60;;;5.40;;
10565;SDS011;5331;48.148;16.326;2022-12-07T06:26:17;7.23;;;5.50;;
10565;SDS011;5331;48.148;16.326;2022-12-07T06:28:45;7.10;;;5.30;;
10565;SDS011;5331;48.148;16.326;2022-12-07T06:31:11;8.30;;;5.63;;
10565;SDS011;5331;48.148;16.326;2022-12-07T06:33:40;6.57;;;5.17;;
10565;SDS011;5331;48.148;16.326;2022-12-07T06:36:07;7.00;;;5.23;;
10565;SDS011;5331;48.148;16.326;2022-12-07T06:38:35;8.73;;;5.47;;
10565;SDS011;5331;48.148;16.326;2022-12-07T06:41:02;7.63;;;5.57;;
10565;SDS011;5331;48.148;16.326;2022-12-07T06:43:29;6.80;;;5.70;;
10565;SDS011;5331;48.148;16.326;2022-12-07T06:45:57;7.50;;;5.77;;
10565;SDS011;5331;48.148;16.326;2022-12-07T06:48:24;7.67;;;5.60;;
10565;SDS011;5331;48.148;16.326;2022-12-07T06:50:53;7.80;;;5.63;;
10565;SDS011;5331;48.148;16.326;2022-12-07T06:53:19;7.50;;;5.83;;
10565;SDS011;5331;48.148;16.326;2022-12-07T06:55:46;9.73;;;6.67;;
10565;SDS011;5331;48.148;16.326;2022-12-07T06:58:13;8.30;;;6.13;;
10565;SDS011;5331;48.148;16.326;2022-12-07T07:00:40;6.63;;;5.47;;
10565;SDS011;5331;48.148;16.326;2022-12-07T07:03:07;6.53;;;5.13;;
10565;SDS011;5331;48.148;16.326;2022-12-07T07:05:34;7.30;;;5.53;;
10565;SDS011;5331;48.148;16.326;2022-12-07T07:08:03;7.37;;;5.30;;
10565;SDS011;5331;48.148;16.326;2022-12-07T07:10:30;6.40;;;5.40;;
10565;SDS011;5331;48.148;16.326;2022-12-07T07:12:57;7.87;;;5.60;;
10565;SDS011;5331;48.148;16.326;2022-12-07T07:15:24;7.00;;;5.20;;
10565;SDS011;5331;48.148;16.326;2022-12-07T07:17:51;6.47;;;5.40;;
10565;SDS011;5331;48.148;16.326;2022-12-07T07:20:18;7.17;;;5.30;;
10565;SDS011;5331;48.148;16.326;2022-12-07T07:22:45;6.03;;;5.17;;
10565;SDS011;5331;48.148;16.326;2022-12-07T07:25:13;6.87;;;5.50;;
10565;SDS011;5331;48.148;16.326;2022-12-07T07:27:40;6.60;;;5.27;;
10565;SDS011;5331;48.148;16.326;2022-12-07T07:30:08;9.00;;;5.67;;
10565;SDS011;5331;48.148;16.326;2022-12-07T07:32:36;6.53;;;5.50;;
10565;SDS011;5331;48.148;16.326;2022-12-07T07:35:03;8.10;;;5.60;;
10565;SDS011;5331;48.148;16.326;2022-12-07T07:37:30;7.27;;;5.30;;
10565;SDS011;5331;48.148;16.326;2022-12-07T07:39:57;6.30;;;5.23;;
10565;SDS011;5331;48.148;16.326;2022-12-07T07:42:26;6.77;;;5.00;;
10565;SDS011;5331;48.148;16.326;2022-12-07T07:44:52;7.03;;;4.80;;
10565;SDS011;5331;48.148;16.326;2022-12-07T07:47:19;6.23;;;5.37;;
10565;SDS011;5331;48.148;16.326;2022-12-07T07:49:46;5.80;;;4.77;;
10565;SDS011;5331;48.148;16.326;2022-12-07T07:52:13;5.60;;;4.83;;
10565;SDS011;5331;48.148;16.326;2022-12-07T07:54:40;6.30;;;4.97;;
10565;SDS011;5331;48.148;16.326;2022-12-07T07:57:07;5.40;;;4.63;;
10565;SDS011;5331;48.148;16.326;2022-12-07T07:59:35;7.10;;;4.60;;
10565;SDS011;5331;48.148;16.326;2022-12-07T08:02:02;5.33;;;4.80;;
10565;SDS011;5331;48.148;16.326;2022-12-07T08:04:29;6.00;;;4.87;;
10565;SDS011;5331;48.148;16.326;2022-12-07T08:06:56;5.53;;;4.70;;
10565;SDS011;5331;48.148;16.326;2022-12-07T08:09:23;5.50;;;5.00;;
10565;SDS011;5331;48.148;16.326;2022-12-07T08:11:50;5.80;;;4.90;;
10565;SDS011;5331;48.148;16.326;2022-12-07T08:14:17;6.07;;;5.10;;
10565;SDS011;5331;48.148;16.326;2022-12-07T08:16:45;8.23;;;5.00;;
10565;SDS011;5331;48.148;16.326;2022-12-07T08:19:12;5.93;;;5.23;;
10565;SDS011;5331;48.148;16.326;2022-12-07T08:21:39;5.20;;;4.70;;
10565;SDS011;5331;48.148;16.326;2022-12-07T08:24:06;6.03;;;5.00;;
10565;SDS011;5331;48.148;16.326;2022-12-07T08:26:33;5.83;;;4.77;;
10565;SDS011;5331;48.148;16.326;2022-12-07T08:29:00;5.30;;;4.67;;
10565;SDS011;5331;48.148;16.326;2022-12-07T08:31:27;5.20;;;4.70;;
10565;SDS011;5331;48.148;16.326;2022-12-07T08:33:56;4.97;;;4.53;;
10565;SDS011;5331;48.148;16.326;2022-12-07T08:36:23;6.10;;;4.97;;
10565;SDS011;5331;48.148;16.326;2022-12-07T08:38:50;6.03;;;4.70;;
10565;SDS011;5331;48.148;16.326;2022-12-07T08:41:17;4.33;;;3.93;;
10565;SDS011;5331;48.148;16.326;2022-12-07T08:43:44;4.87;;;4.37;;
10565;SDS011;5331;48.148;16.326;2022-12-07T08:46:13;4.50;;;4.10;;
10565;SDS011;5331;48.148;16.326;2022-12-07T08:48:45;4.50;;;4.10;;
10565;SDS011;5331;48.148;16.326;2022-12-07T08:51:17;5.10;;;4.53;;
10565;SDS011;5331;48.148;16.326;2022-12-07T08:53:44;5.10;;;4.37;;
10565;SDS011;5331;48.148;16.326;2022-12-07T08:56:12;4.60;;;4.20;;
10565;SDS011;5331;48.148;16.326;2022-12-07T08:58:39;5.33;;;4.40;;
10565;SDS011;5331;48.148;16.326;2022-12-07T09:01:07;5.03;;;4.47;;
10565;SDS011;5331;48.148;16.326;2022-12-07T09:03:34;4.67;;;4.27;;
10565;SDS011;5331;48.148;16.326;2022-12-07T09:06:01;4.60;;;4.20;;
10565;SDS011;5331;48.148;16.326;2022-12-07T09:08:31;4.53;;;4.13;;
10565;SDS011;5331;48.148;16.326;2022-12-07T09:11:01;6.63;;;4.67;;
10565;SDS011;5331;48.148;16.326;2022-12-07T09:13:28;4.70;;;4.20;;
10565;SDS011;5331;48.148;16.326;2022-12-07T09:15:55;5.07;;;4.57;;
10565;SDS011;5331;48.148;16.326;2022-12-07T09:18:23;4.73;;;4.30;;
10565;SDS011;5331;48.148;16.326;2022-12-07T09:20:50;4.80;;;4.30;;
10565;SDS011;5331;48.148;16.326;2022-12-07T09:23:17;5.10;;;4.60;;
10565;SDS011;5331;48.148;16.326;2022-12-07T09:25:46;5.17;;;4.40;;
10565;SDS011;5331;48.148;16.326;2022-12-07T09:28:13;6.13;;;5.10;;
10565;SDS011;5331;48.148;16.326;2022-12-07T09:30:44;5.13;;;4.60;;
10565;SDS011;5331;48.148;16.326;2022-12-07T09:33:12;6.57;;;4.83;;
10565;SDS011;5331;48.148;16.326;2022-12-07T09:35:43;6.97;;;5.20;;
10565;SDS011;5331;48.148;16.326;2022-12-07T09:38:11;5.90;;;5.40;;
10565;SDS011;5331;48.148;16.326;2022-12-07T09:40:38;5.57;;;5.07;;
10565;SDS011;5331;48.148;16.326;2022-12-07T09:43:10;5.93;;;5.37;;
10565;SDS011;5331;48.148;16.326;2022-12-07T09:45:39;9.77;;;5.30;;
10565;SDS011;5331;48.148;16.326;2022-12-07T09:48:08;5.60;;;4.77;;
10565;SDS011;5331;48.148;16.326;2022-12-07T09:50:43;6.70;;;5.30;;
10565;SDS011;5331;48.148;16.326;2022-12-07T09:53:13;5.93;;;5.20;;
10565;SDS011;5331;48.148;16.326;2022-12-07T09:55:46;5.63;;;5.03;;
10565;SDS011;5331;48.148;16.326;2022-12-07T09:58:17;5.80;;;5.20;;
10565;SDS011;5331;48.148;16.326;2022-12-07T10:00:47;5.80;;;5.17;;
10565;SDS011;5331;48.148;16.326;2022-12-07T10:03:15;10.73;;;6.87;;
10565;SDS011;5331;48.148;16.326;2022-12-07T10:05:42;6.30;;;5.50;;
10565;SDS011;5331;48.148;16.326;2022-12-07T10:08:13;6.60;;;5.27;;
10565;SDS011;5331;48.148;16.326;2022-12-07T10:10:42;6.27;;;5.10;;
10565;SDS011;5331;48.148;16.326;2022-12-07T10:13:10;5.40;;;4.90;;
10565;SDS011;5331;48.148;16.326;2022-12-07T10:15:44;5.17;;;4.23;;
10565;SDS011;5331;48.148;16.326;2022-12-07T10:21:03;6.10;;;4.60;;
10565;SDS011;5331;48.148;16.326;2022-12-07T10:23:38;4.73;;;4.33;;
10565;SDS011;5331;48.148;16.326;2022-12-07T10:26:19;5.00;;;4.50;;
10565;SDS011;5331;48.148;16.326;2022-12-07T10:28:52;5.43;;;4.53;;
10565;SDS011;5331;48.148;16.326;2022-12-07T10:31:21;5.93;;;4.30;;
10565;SDS011;5331;48.148;16.326;2022-12-07T10:33:49;5.00;;;4.60;;
10565;SDS011;5331;48.148;16.326;2022-12-07T10:36:20;4.73;;;4.27;;
10565;SDS011;5331;48.148;16.326;2022-12-07T10:38:49;4.90;;;4.43;;
10565;SDS011;5331;48.148;16.326;2022-12-07T10:41:17;4.77;;;4.17;;
10565;SDS011;5331;48.148;16.326;2022-12-07T10:43:49;4.87;;;4.37;;
10565;SDS011;5331;48.148;16.326;2022-12-07T10:49:27;5.50;;;4.73;;
10565;SDS011;5331;48.148;16.326;2022-12-07T10:52:13;4.93;;;4.30;;
10565;SDS011;5331;48.148;16.326;2022-12-07T10:54:52;4.87;;;4.37;;
10565;SDS011;5331;48.148;16.326;2022-12-07T10:57:36;4.47;;;4.07;;
10565;SDS011;5331;48.148;16.326;2022-12-07T11:00:15;4.63;;;4.17;;
10565;SDS011;5331;48.148;16.326;2022-12-07T11:05:50;5.57;;;4.67;;
10565;SDS011;5331;48.148;16.326;2022-12-07T11:08:33;6.20;;;5.03;;
10565;SDS011;5331;48.148;16.326;2022-12-07T11:11:12;5.57;;;4.53;;
10565;SDS011;5331;48.148;16.326;2022-12-07T11:13:44;5.80;;;5.13;;
10565;SDS011;5331;48.148;16.326;2022-12-07T11:16:20;5.17;;;4.67;;
10565;SDS011;5331;48.148;16.326;2022-12-07T11:19:03;5.50;;;4.87;;
10565;SDS011;5331;48.148;16.326;2022-12-07T11:21:45;5.23;;;4.73;;
10565;SDS011;5331;48.148;16.326;2022-12-07T11:24:19;5.40;;;4.90;;
10565;SDS011;5331;48.148;16.326;2022-12-07T11:26:55;4.93;;;4.43;;
10565;SDS011;5331;48.148;16.326;2022-12-07T11:32:37;5.27;;;4.70;;
10565;SDS011;5331;48.148;16.326;2022-12-07T11:35:16;5.40;;;4.77;;
10565;SDS011;5331;48.148;16.326;2022-12-07T11:37:51;4.90;;;4.50;;
10565;SDS011;5331;48.148;16.326;2022-12-07T11:40:24;4.43;;;4.03;;
10565;SDS011;5331;48.148;16.326;2022-12-07T11:42:57;4.90;;;4.40;;
10565;SDS011;5331;48.148;16.326;2022-12-07T11:45:28;5.13;;;4.30;;
10565;SDS011;5331;48.148;16.326;2022-12-07T11:47:59;5.80;;;4.77;;
10565;SDS011;5331;48.148;16.326;2022-12-07T11:50:33;5.13;;;4.57;;
10565;SDS011;5331;48.148;16.326;2022-12-07T11:53:03;5.37;;;4.47;;
10565;SDS011;5331;48.148;16.326;2022-12-07T11:55:40;5.73;;;4.77;;
10565;SDS011;5331;48.148;16.326;2022-12-07T11:58:14;5.90;;;4.97;;
10565;SDS011;5331;48.148;16.326;2022-12-07T12:00:49;5.97;;;5.00;;
10565;SDS011;5331;48.148;16.326;2022-12-07T12:03:20;7.73;;;5.73;;
10565;SDS011;5331;48.148;16.326;2022-12-07T12:05:56;6.47;;;5.30;;
10565;SDS011;5331;48.148;16.326;2022-12-07T12:08:24;6.03;;;5.43;;
10565;SDS011;5331;48.148;16.326;2022-12-07T12:10:55;6.40;;;5.70;;
10565;SDS011;5331;48.148;16.326;2022-12-07T12:13:38;7.20;;;5.20;;
10565;SDS011;5331;48.148;16.326;2022-12-07T12:16:47;5.53;;;4.80;;
10565;SDS011;5331;48.148;16.326;2022-12-07T12:19:30;4.63;;;4.23;;
10565;SDS011;5331;48.148;16.326;2022-12-07T12:22:03;5.23;;;4.73;;
10565;SDS011;5331;48.148;16.326;2022-12-07T12:24:40;5.33;;;4.50;;
10565;SDS011;5331;48.148;16.326;2022-12-07T12:27:09;5.30;;;4.57;;
10565;SDS011;5331;48.148;16.326;2022-12-07T12:29:44;5.10;;;4.60;;
10565;SDS011;5331;48.148;16.326;2022-12-07T12:32:20;5.13;;;4.63;;
10565;SDS011;5331;48.148;16.326;2022-12-07T12:35:00;5.23;;;4.73;;
10565;SDS011;5331;48.148;16.326;2022-12-07T12:37:40;5.83;;;4.77;;
10565;SDS011;5331;48.148;16.326;2022-12-07T12:55:24;4.53;;;3.87;;
10565;SDS011;5331;48.148;16.326;2022-12-07T13:10:24;5.73;;;4.70;;
10565;SDS011;5331;48.148;16.326;2022-12-07T13:13:00;6.13;;;5.20;;
10565;SDS011;5331;48.148;16.326;2022-12-07T13:15:33;6.03;;;5.40;;
10565;SDS011;5331;48.148;16.326;2022-12-07T13:18:03;5.67;;;5.10;;
10565;SDS011;5331;48.148;16.326;2022-12-07T13:20:52;6.50;;;5.30;;
10565;SDS011;5331;48.148;16.326;2022-12-07T13:23:21;6.10;;;5.50;;
10565;SDS011;5331;48.148;16.326;2022-12-07T13:26:12;5.77;;;4.90;;
10565;SDS011;5331;48.148;16.326;2022-12-07T13:28:43;6.10;;;5.10;;
10565;SDS011;5331;48.148;16.326;2022-12-07T13:31:28;5.63;;;5.00;;
10565;SDS011;5331;48.148;16.326;2022-12-07T13:34:01;7.03;;;5.50;;
10565;SDS011;5331;48.148;16.326;2022-12-07T13:36:29;7.40;;;5.07;;
10565;SDS011;5331;48.148;16.326;2022-12-07T13:39:10;7.70;;;6.50;;
10565;SDS011;5331;48.148;16.326;2022-12-07T13:41:44;6.40;;;5.65;;
10565;SDS011;5331;48.148;16.326;2022-12-07T13:44:16;6.43;;;5.83;;
10565;SDS011;5331;48.148;16.326;2022-12-07T13:46:45;6.07;;;5.43;;
10565;SDS011;5331;48.148;16.326;2022-12-07T13:49:19;6.37;;;5.10;;
10565;SDS011;5331;48.148;16.326;2022-12-07T13:51:48;6.97;;;5.53;;
10565;SDS011;5331;48.148;16.326;2022-12-07T13:54:16;7.57;;;5.33;;
10565;SDS011;5331;48.148;16.326;2022-12-07T13:56:46;7.23;;;5.53;;
10565;SDS011;5331;48.148;16.326;2022-12-07T13:59:17;6.70;;;5.23;;
10565;SDS011;5331;48.148;16.326;2022-12-07T14:01:47;5.97;;;5.30;;
10565;SDS011;5331;48.148;16.326;2022-12-07T14:04:34;6.23;;;5.40;;
10565;SDS011;5331;48.148;16.326;2022-12-07T14:09:53;6.67;;;5.50;;
10565;SDS011;5331;48.148;16.326;2022-12-07T14:12:23;6.60;;;5.10;;
10565;SDS011;5331;48.148;16.326;2022-12-07T14:14:50;6.90;;;5.50;;
10565;SDS011;5331;48.148;16.326;2022-12-07T14:17:18;7.37;;;5.90;;
10565;SDS011;5331;48.148;16.326;2022-12-07T14:19:48;8.80;;;6.13;;
10565;SDS011;5331;48.148;16.326;2022-12-07T14:22:19;7.93;;;5.70;;
10565;SDS011;5331;48.148;16.326;2022-12-07T14:24:57;6.57;;;5.70;;
10565;SDS011;5331;48.148;16.326;2022-12-07T14:27:48;6.63;;;5.57;;
10565;SDS011;5331;48.148;16.326;2022-12-07T14:30:18;8.03;;;5.80;;
10565;SDS011;5331;48.148;16.326;2022-12-07T14:32:46;7.30;;;6.13;;
10565;SDS011;5331;48.148;16.326;2022-12-07T14:35:17;8.00;;;5.70;;
10565;SDS011;5331;48.148;16.326;2022-12-07T14:37:46;7.23;;;5.87;;
10565;SDS011;5331;48.148;16.326;2022-12-07T14:40:15;8.23;;;6.57;;
10565;SDS011;5331;48.148;16.326;2022-12-07T14:42:44;6.63;;;5.33;;
10565;SDS011;5331;48.148;16.326;2022-12-07T14:45:15;10.17;;;7.10;;
10565;SDS011;5331;48.148;16.326;2022-12-07T14:47:43;8.37;;;6.60;;
10565;SDS011;5331;48.148;16.326;2022-12-07T14:50:11;20.17;;;11.30;;
10565;SDS011;5331;48.148;16.326;2022-12-07T14:52:39;12.63;;;9.13;;
10565;SDS011;5331;48.148;16.326;2022-12-07T14:55:12;9.23;;;6.97;;
10565;SDS011;5331;48.148;16.326;2022-12-07T14:57:41;9.17;;;6.23;;
10565;SDS011;5331;48.148;16.326;2022-12-07T15:00:09;8.03;;;6.20;;
10565;SDS011;5331;48.148;16.326;2022-12-07T15:02:42;6.60;;;5.70;;
10565;SDS011;5331;48.148;16.326;2022-12-07T15:05:09;8.23;;;6.10;;
10565;SDS011;5331;48.148;16.326;2022-12-07T15:07:36;8.17;;;6.33;;
10565;SDS011;5331;48.148;16.326;2022-12-07T15:10:04;7.93;;;6.10;;
10565;SDS011;5331;48.148;16.326;2022-12-07T15:12:32;7.10;;;5.70;;
10565;SDS011;5331;48.148;16.326;2022-12-07T15:14:59;8.10;;;5.77;;
10565;SDS011;5331;48.148;16.326;2022-12-07T15:17:28;7.40;;;6.03;;
10565;SDS011;5331;48.148;16.326;2022-12-07T15:19:55;8.80;;;6.37;;
10565;SDS011;5331;48.148;16.326;2022-12-07T15:22:22;8.53;;;6.50;;
10565;SDS011;5331;48.148;16.326;2022-12-07T15:24:48;8.73;;;7.03;;
10565;SDS011;5331;48.148;16.326;2022-12-07T15:27:15;9.50;;;6.57;;
10565;SDS011;5331;48.148;16.326;2022-12-07T15:29:42;8.87;;;6.47;;
10565;SDS011;5331;48.148;16.326;2022-12-07T15:32:09;7.33;;;5.87;;
10565;SDS011;5331;48.148;16.326;2022-12-07T15:34:38;8.57;;;6.33;;
10565;SDS011;5331;48.148;16.326;2022-12-07T15:37:05;7.03;;;6.00;;
10565;SDS011;5331;48.148;16.326;2022-12-07T15:39:33;7.67;;;5.70;;
10565;SDS011;5331;48.148;16.326;2022-12-07T15:42:00;7.80;;;6.13;;
10565;SDS011;5331;48.148;16.326;2022-12-07T15:44:27;8.20;;;6.47;;
10565;SDS011;5331;48.148;16.326;2022-12-07T15:47:11;8.30;;;6.30;;
10565;SDS011;5331;48.148;16.326;2022-12-07T15:49:39;8.23;;;6.57;;
10565;SDS011;5331;48.148;16.326;2022-12-07T15:52:06;9.00;;;6.60;;
10565;SDS011;5331;48.148;16.326;2022-12-07T15:54:33;8.63;;;7.00;;
10565;SDS011;5331;48.148;16.326;2022-12-07T15:57:00;8.43;;;7.07;;